Time;durP1;ratioP1;P1;durP2;ratioP2;P2;SDS_P1;SDS_P2;PMS_P1;PMS_P2;Temp;Humidity;BMP_temperature;BMP_pressure;BME280_temperature;BME280_humidity;BME280_pressure;Samples;Min_cycle;Max_cycle;Signal;HPM_P1;HPM_P2
2022/07/12 00:02:10;;;;;;;;;;;23.50;70.20;;;;;;4995525;28;19944;-96
2022/07/12 00:04:40;;;;;;;;;;;23.60;71.30;;;;;;4996970;28;19948;-96
2022/07/12 00:07:06;;;;;;;;;;;23.60;72.10;;;;;;4978635;28;20020;-97
2022/07/12 00:09:34;;;;;;;;;;;23.50;70.70;;;;;;4995111;28;19987;-96
2022/07/12 00:12:01;;;;;;;;;;;23.60;70.30;;;;;;4996556;28;19972;-96
2022/07/12 00:14:29;;;;;;;;;;;23.70;70.10;;;;;;4994049;28;19931;-97
2022/07/12 00:16:56;;;;;;;;;;;23.70;70.00;;;;;;4995839;28;19947;-97
2022/07/12 00:19:26;;;;;;;;;;;23.70;69.60;;;;;;4995201;28;19950;-96
2022/07/12 00:21:52;;;;;;;;;;;23.70;69.60;;;;;;4997199;28;19926;-96
2022/07/12 00:24:20;;;;;;;;;;;23.80;69.70;;;;;;4994516;28;19949;-96
2022/07/12 00:26:46;;;;;;;;;;;23.80;69.80;;;;;;4993674;28;19969;-96
2022/07/12 00:29:15;;;;;;;;;;;23.80;69.70;;;;;;4994103;28;19950;-96
2022/07/12 00:31:41;;;;;;;;;;;23.80;69.60;;;;;;4994154;28;19992;-97
2022/07/12 00:34:10;;;;;;;;;;;23.80;69.60;;;;;;4993389;28;19946;-96
2022/07/12 00:36:36;;;;;;;;;;;23.80;69.70;;;;;;4994516;28;20036;-96
2022/07/12 00:39:09;;;;;;;;;;;23.80;69.80;;;;;;4995121;28;19956;-96
2022/07/12 00:41:36;;;;;;;;;;;23.80;69.80;;;;;;4993482;23;19977;-96
2022/07/12 00:44:04;;;;;;;;;;;23.80;70.00;;;;;;4979807;28;19952;-96
2022/07/12 00:46:37;;;;;;;;;;;23.80;71.00;;;;;;4979801;28;19958;-96
2022/07/12 00:49:12;;;;;;;;;;;23.70;71.40;;;;;;4978887;28;19953;-96
2022/07/12 00:51:39;;;;;;;;;;;23.70;71.50;;;;;;4979567;28;20013;-96
2022/07/12 00:54:06;;;;;;;;;;;23.70;70.50;;;;;;4996525;28;19973;-96
2022/07/12 00:56:32;;;;;;;;;;;23.70;70.20;;;;;;4979475;28;19943;-96
2022/07/12 00:58:59;;;;;;;;;;;23.70;70.00;;;;;;4979142;28;19941;-96
2022/07/12 01:01:26;;;;;;;;;;;23.70;69.80;;;;;;4995900;28;19966;-96
2022/07/12 01:03:53;;;;;;;;;;;23.70;69.70;;;;;;4979104;28;19950;-96
2022/07/12 01:06:21;;;;;;;;;;;23.70;69.60;;;;;;4978634;28;19948;-96
2022/07/12 01:08:48;;;;;;;;;;;23.70;69.60;;;;;;4977421;28;19950;-96
2022/07/12 01:11:17;;;;;;;;;;;23.70;69.60;;;;;;4995955;28;19950;-96
2022/07/12 01:13:46;;;;;;;;;;;23.60;69.70;;;;;;4979449;28;19948;-96
2022/07/12 01:16:14;;;;;;;;;;;23.60;69.70;;;;;;4978303;28;19983;-96
2022/07/12 01:18:41;;;;;;;;;;;23.60;70.20;;;;;;4978253;28;19947;-96
2022/07/12 01:21:09;;;;;;;;;;;23.60;70.60;;;;;;4995147;28;19967;-96
2022/07/12 01:23:36;;;;;;;;;;;23.40;70.30;;;;;;4978655;28;20006;-96
2022/07/12 01:26:03;;;;;;;;;;;23.40;70.50;;;;;;4978362;28;20062;-97
2022/07/12 01:28:30;;;;;;;;;;;23.30;70.50;;;;;;4999192;28;19940;-96
2022/07/12 01:30:56;;;;;;;;;;;23.30;72.30;;;;;;4981630;28;19978;-96
2022/07/12 01:33:22;;;;;;;;;;;23.20;72.80;;;;;;4981308;28;19950;-96
2022/07/12 01:35:53;;;;;;;;;;;23.20;72.90;;;;;;4981635;28;19949;-96
2022/07/12 01:38:20;;;;;;;;;;;23.10;73.10;;;;;;4980600;28;19944;-96
2022/07/12 01:40:47;;;;;;;;;;;23.00;73.70;;;;;;4980735;28;20083;-96
2022/07/12 01:43:13;;;;;;;;;;;22.80;74.70;;;;;;4980071;28;20033;-96
2022/07/12 01:45:41;;;;;;;;;;;22.80;75.30;;;;;;4996721;28;19945;-97
2022/07/12 01:48:07;;;;;;;;;;;22.70;75.10;;;;;;4978693;28;20407;-96
2022/07/12 01:50:33;;;;;;;;;;;22.60;75.60;;;;;;4996572;28;19961;-96
2022/07/12 01:53:00;;;;;;;;;;;22.40;76.20;;;;;;4979226;28;20114;-96
2022/07/12 01:55:27;;;;;;;;;;;22.30;77.00;;;;;;4979219;28;19943;-96
2022/07/12 01:57:53;;;;;;;;;;;22.20;77.20;;;;;;4997224;28;19944;-96
2022/07/12 02:00:20;;;;;;;;;;;22.00;77.80;;;;;;4981167;28;19967;-96
2022/07/12 02:02:47;;;;;;;;;;;21.90;78.10;;;;;;4981148;28;20001;-96
2022/07/12 02:05:15;;;;;;;;;;;21.80;79.00;;;;;;4998241;28;19945;-96
2022/07/12 02:07:43;;;;;;;;;;;21.70;79.40;;;;;;4994767;28;19942;-96
2022/07/12 02:10:10;;;;;;;;;;;21.60;79.70;;;;;;4979435;28;19969;-96
2022/07/12 02:12:37;;;;;;;;;;;21.70;79.60;;;;;;4995602;28;19971;-97
2022/07/12 02:15:04;;;;;;;;;;;21.60;79.90;;;;;;4980849;28;20015;-96
2022/07/12 02:17:33;;;;;;;;;;;21.60;79.80;;;;;;4979098;28;20364;-96
2022/07/12 02:20:03;;;;;;;;;;;21.60;79.30;;;;;;4997569;28;20028;-96
2022/07/12 02:22:32;;;;;;;;;;;21.60;79.10;;;;;;4981254;28;20023;-96
2022/07/12 02:25:03;;;;;;;;;;;21.70;78.50;;;;;;4998910;28;19951;-96
2022/07/12 02:27:30;;;;;;;;;;;21.80;78.10;;;;;;4997804;28;19963;-96
2022/07/12 02:29:57;;;;;;;;;;;21.90;78.10;;;;;;4981259;28;19948;-96
2022/07/12 02:32:24;;;;;;;;;;;21.90;79.10;;;;;;4980537;28;19991;-96
2022/07/12 02:34:53;;;;;;;;;;;21.80;79.60;;;;;;4997058;28;19946;-96
2022/07/12 02:37:20;;;;;;;;;;;21.80;79.60;;;;;;4980216;28;19925;-96
2022/07/12 02:39:46;;;;;;;;;;;21.90;79.30;;;;;;4980180;28;19963;-96
2022/07/12 02:42:13;;;;;;;;;;;21.80;79.80;;;;;;4997134;28;19977;-96
2022/07/12 02:44:39;;;;;;;;;;;21.90;79.80;;;;;;4996061;28;20027;-96
2022/07/12 02:47:05;;;;;;;;;;;21.90;79.70;;;;;;4995821;28;19992;-96
2022/07/12 02:49:32;;;;;;;;;;;21.80;79.80;;;;;;4996007;28;19941;-96
2022/07/12 02:51:58;;;;;;;;;;;21.90;80.00;;;;;;4996329;28;20003;-96
2022/07/12 02:54:25;;;;;;;;;;;21.90;80.30;;;;;;4996387;28;19950;-96
2022/07/12 02:56:56;;;;;;;;;;;21.90;79.80;;;;;;4997000;28;19939;-96
2022/07/12 02:59:24;;;;;;;;;;;22.00;77.50;;;;;;4996357;28;19953;-96
2022/07/12 03:01:52;;;;;;;;;;;22.10;76.80;;;;;;4995729;28;19952;-96
2022/07/12 03:04:19;;;;;;;;;;;22.20;76.40;;;;;;4996726;28;19943;-97
2022/07/12 03:06:45;;;;;;;;;;;22.20;76.20;;;;;;4993590;28;19948;-96
2022/07/12 03:09:11;;;;;;;;;;;22.30;76.70;;;;;;4977003;28;19945;-96
2022/07/12 03:11:40;;;;;;;;;;;22.30;77.40;;;;;;4993909;28;19946;-96
2022/07/12 03:14:06;;;;;;;;;;;22.30;76.80;;;;;;4995117;28;19947;-96
2022/07/12 03:16:35;;;;;;;;;;;22.30;77.10;;;;;;4996034;28;19937;-96
2022/07/12 03:19:02;;;;;;;;;;;22.30;75.60;;;;;;4995885;28;19943;-96
2022/07/12 03:21:30;;;;;;;;;;;22.30;75.20;;;;;;4980368;28;20020;-96
2022/07/12 03:23:59;;;;;;;;;;;22.40;75.00;;;;;;4997970;28;19977;-96
2022/07/12 03:26:26;;;;;;;;;;;22.40;74.90;;;;;;4997633;28;19989;-96
2022/07/12 03:28:55;;;;;;;;;;;22.40;74.80;;;;;;4981177;28;20428;-97
2022/07/12 03:31:23;;;;;;;;;;;22.50;74.80;;;;;;4997261;28;19956;-96
2022/07/12 03:33:54;;;;;;;;;;;22.50;74.60;;;;;;4997189;28;19981;-96
2022/07/12 03:36:26;;;;;;;;;;;22.50;74.40;;;;;;4981032;28;20474;-96
2022/07/12 03:38:53;;;;;;;;;;;22.50;74.40;;;;;;4997196;28;19969;-96
2022/07/12 03:41:26;;;;;;;;;;;22.50;74.40;;;;;;4996570;28;19964;-96
2022/07/12 03:43:55;;;;;;;;;;;22.50;74.40;;;;;;4980862;28;19986;-96
2022/07/12 03:46:21;;;;;;;;;;;22.50;74.40;;;;;;4996363;28;19973;-96
2022/07/12 03:48:58;;;;;;;;;;;22.60;74.30;;;;;;4996564;28;19968;-96
2022/07/12 03:51:25;;;;;;;;;;;22.50;74.40;;;;;;4992212;28;19941;-96
2022/07/12 03:53:53;;;;;;;;;;;22.50;74.40;;;;;;4977831;28;19932;-96
2022/07/12 03:59:13;;;;;;;;;;;22.60;74.50;;;;;;4982095;28;19941;-96
2022/07/12 04:01:40;;;;;;;;;;;22.60;74.50;;;;;;4978720;28;19981;-96
2022/07/12 04:04:12;;;;;;;;;;;22.60;74.50;;;;;;4995851;28;19951;-96
2022/07/12 04:06:41;;;;;;;;;;;22.60;74.50;;;;;;4993944;28;19975;-97
2022/07/12 04:09:11;;;;;;;;;;;22.60;74.60;;;;;;4994703;28;19947;-97
2022/07/12 04:11:37;;;;;;;;;;;22.60;74.60;;;;;;4979568;28;19948;-96
2022/07/12 04:14:09;;;;;;;;;;;22.60;74.70;;;;;;4995208;28;19941;-97
2022/07/12 04:16:36;;;;;;;;;;;22.60;74.70;;;;;;4995509;28;19942;-96
2022/07/12 04:19:02;;;;;;;;;;;22.60;74.60;;;;;;4995937;28;19945;-96
2022/07/12 04:21:29;;;;;;;;;;;22.60;74.60;;;;;;4995577;28;19965;-97
2022/07/12 04:23:58;;;;;;;;;;;22.50;74.80;;;;;;4994311;28;19951;-96
2022/07/12 04:26:27;;;;;;;;;;;22.50;75.00;;;;;;4961986;28;19993;-96
2022/07/12 04:28:54;;;;;;;;;;;22.50;75.20;;;;;;4994194;28;19927;-96
2022/07/12 04:31:20;;;;;;;;;;;22.40;75.40;;;;;;4995707;28;19969;-96
2022/07/12 04:33:50;;;;;;;;;;;22.40;75.50;;;;;;4978628;28;19949;-96
2022/07/12 04:36:16;;;;;;;;;;;22.40;75.70;;;;;;4993995;28;20044;-96
2022/07/12 04:38:42;;;;;;;;;;;22.40;75.70;;;;;;4977724;28;19947;-97
2022/07/12 04:41:09;;;;;;;;;;;22.40;75.80;;;;;;4993563;28;19969;-96
2022/07/12 04:43:35;;;;;;;;;;;22.40;75.90;;;;;;4993501;28;19987;-96
2022/07/12 04:46:13;;;;;;;;;;;22.40;76.00;;;;;;4993013;28;19942;-96
2022/07/12 04:48:42;;;;;;;;;;;22.30;76.00;;;;;;4992598;28;19938;-96
2022/07/12 04:51:09;;;;;;;;;;;22.40;76.20;;;;;;4993470;28;19946;-96
2022/07/12 04:53:36;;;;;;;;;;;22.40;76.10;;;;;;4995919;28;20075;-96
2022/07/12 04:56:04;;;;;;;;;;;22.40;76.20;;;;;;4997567;28;19975;-96
2022/07/12 04:58:53;;;;;;;;;;;22.50;76.10;;;;;;4981345;28;19968;-97
2022/07/12 05:01:34;;;;;;;;;;;22.60;75.70;;;;;;4981691;28;19969;-97
2022/07/12 05:04:04;;;;;;;;;;;22.80;75.30;;;;;;4999053;28;19944;-96
2022/07/12 05:06:38;;;;;;;;;;;22.80;75.30;;;;;;4997754;28;19961;-97
2022/07/12 05:09:06;;;;;;;;;;;22.90;75.00;;;;;;4982254;28;19943;-96
2022/07/12 05:11:54;;;;;;;;;;;23.00;74.40;;;;;;4998138;28;20231;-96
2022/07/12 05:34:19;;;;;;;;;;;23.70;69.70;;;;;;4957158;29;19987;-96
2022/07/12 05:36:50;;;;;;;;;;;23.80;68.70;;;;;;4959398;29;19938;-96
2022/07/12 05:42:00;;;;;;;;;;;24.00;68.20;;;;;;5077380;23;20001;-96
2022/07/12 05:44:47;;;;;;;;;;;24.10;67.60;;;;;;4998909;28;19932;-96
2022/07/12 05:47:14;;;;;;;;;;;24.20;66.30;;;;;;4982077;28;19949;-96
2022/07/12 05:50:04;;;;;;;;;;;24.20;65.90;;;;;;4998651;28;19952;-96
2022/07/12 05:55:44;;;;;;;;;;;24.30;64.40;;;;;;5393191;23;20048;-96
2022/07/12 05:58:13;;;;;;;;;;;24.30;63.40;;;;;;4981731;28;19938;-96
2022/07/12 06:01:20;;;;;;;;;;;24.40;63.10;;;;;;4937472;28;19985;-96
2022/07/12 06:31:10;;;;;;;;;;;25.10;60.80;;;;;;5049703;23;19977;-96
2022/07/12 06:33:49;;;;;;;;;;;25.20;61.10;;;;;;5000542;28;19952;-96
2022/07/12 06:36:43;;;;;;;;;;;25.20;60.70;;;;;;4998780;28;19950;-98
2022/07/12 06:41:47;;;;;;;;;;;25.30;60.40;;;;;;5494404;23;19972;-96
2022/07/12 06:44:23;;;;;;;;;;;25.40;60.10;;;;;;4997981;28;19948;-96
2022/07/12 06:47:04;;;;;;;;;;;25.50;59.80;;;;;;4996406;28;19947;-96
2022/07/12 06:49:34;;;;;;;;;;;25.60;59.80;;;;;;4984580;28;20027;-96
2022/07/12 06:52:03;;;;;;;;;;;25.70;59.70;;;;;;4999696;28;19943;-96
2022/07/12 06:57:05;;;;;;;;;;;25.80;59.30;;;;;;6056560;23;19970;-95
2022/07/12 06:59:36;;;;;;;;;;;25.80;58.90;;;;;;4999507;28;20032;-96
2022/07/12 07:02:05;;;;;;;;;;;25.70;59.60;;;;;;4983171;28;20005;-96
2022/07/12 07:04:32;;;;;;;;;;;25.80;59.60;;;;;;4982403;28;20007;-96
2022/07/12 07:19:57;;;;;;;;;;;25.90;59.80;;;;;;5308680;23;20264;-96
2022/07/12 07:22:30;;;;;;;;;;;26.00;59.40;;;;;;4995816;28;19957;-96
2022/07/12 07:25:03;;;;;;;;;;;26.10;58.50;;;;;;4959690;29;19955;-96
2022/07/12 07:27:34;;;;;;;;;;;26.20;58.90;;;;;;4959281;29;19948;-96
2022/07/12 07:32:48;;;;;;;;;;;26.30;57.90;;;;;;4959946;29;19947;-97
2022/07/12 07:35:21;;;;;;;;;;;26.40;59.30;;;;;;4944587;29;20008;-96
2022/07/12 07:37:53;;;;;;;;;;;26.40;60.50;;;;;;4955733;29;19934;-97
2022/07/12 07:40:21;;;;;;;;;;;26.40;58.20;;;;;;4943812;29;20362;-96
2022/07/12 07:42:53;;;;;;;;;;;26.40;57.60;;;;;;4943950;29;19956;-96
2022/07/12 07:45:26;;;;;;;;;;;26.50;58.00;;;;;;4957727;29;19930;-97
2022/07/12 07:47:56;;;;;;;;;;;26.50;58.50;;;;;;4942140;29;19936;-96
2022/07/12 07:50:25;;;;;;;;;;;26.50;57.30;;;;;;4942214;29;19948;-96
2022/07/12 07:52:56;;;;;;;;;;;26.50;58.40;;;;;;4957557;29;19933;-96
2022/07/12 07:55:25;;;;;;;;;;;26.60;57.60;;;;;;4943273;29;19935;-96
2022/07/12 07:57:59;;;;;;;;;;;26.70;56.80;;;;;;4958552;29;19975;-96
2022/07/12 08:00:27;;;;;;;;;;;26.70;56.90;;;;;;4940832;29;20010;-96
2022/07/12 08:02:56;;;;;;;;;;;26.60;56.70;;;;;;4957514;29;19969;-96
2022/07/12 08:05:23;;;;;;;;;;;26.50;56.40;;;;;;4941991;29;19948;-96
2022/07/12 08:07:50;;;;;;;;;;;26.50;55.90;;;;;;4940704;29;19948;-96
2022/07/12 08:10:17;;;;;;;;;;;26.50;55.90;;;;;;4940825;29;19966;-96
2022/07/12 08:12:47;;;;;;;;;;;26.60;56.00;;;;;;4958303;29;19953;-96
2022/07/12 08:15:18;;;;;;;;;;;26.70;55.70;;;;;;4941967;29;19954;-96
2022/07/12 08:17:49;;;;;;;;;;;26.80;54.60;;;;;;4926338;29;19947;-96
2022/07/12 08:20:24;;;;;;;;;;;26.90;54.30;;;;;;4941466;29;19983;-97
2022/07/12 08:22:55;;;;;;;;;;;26.90;54.80;;;;;;4942027;29;19944;-97
2022/07/12 08:25:23;;;;;;;;;;;27.00;54.60;;;;;;4941846;29;19934;-97
2022/07/12 08:27:52;;;;;;;;;;;27.10;53.60;;;;;;4949822;29;19938;-96
2022/07/12 08:30:22;;;;;;;;;;;27.10;52.70;;;;;;4961644;29;19951;-96
2022/07/12 08:32:52;;;;;;;;;;;27.10;53.50;;;;;;4961973;29;19961;-97
2022/07/12 08:35:26;;;;;;;;;;;27.10;55.30;;;;;;4961168;29;19955;-96
2022/07/12 08:37:55;;;;;;;;;;;27.10;55.10;;;;;;4962247;29;19975;-96
2022/07/12 08:40:36;;;;;;;;;;;27.10;54.50;;;;;;4974541;29;19967;-96
2022/07/12 08:43:04;;;;;;;;;;;27.00;53.50;;;;;;4975317;29;19947;-97
2022/07/12 08:45:40;;;;;;;;;;;27.10;55.40;;;;;;4974659;29;19929;-97
2022/07/12 08:48:19;;;;;;;;;;;27.10;56.20;;;;;;4979450;28;19984;-96
2022/07/12 08:51:07;;;;;;;;;;;27.20;56.30;;;;;;4979385;29;19943;-96
2022/07/12 08:53:45;;;;;;;;;;;27.20;54.30;;;;;;4962044;29;19985;-96
2022/07/12 08:56:33;;;;;;;;;;;27.20;52.90;;;;;;4939764;29;20192;-96
2022/07/12 08:59:17;;;;;;;;;;;27.10;53.80;;;;;;4923226;29;19946;-96
2022/07/12 09:01:56;;;;;;;;;;;27.10;55.40;;;;;;4923778;29;19997;-97
2022/07/12 09:04:30;;;;;;;;;;;27.20;53.70;;;;;;4924478;29;19949;-96
2022/07/12 09:07:16;;;;;;;;;;;27.30;52.80;;;;;;4923269;29;19944;-96
2022/07/12 09:10:04;;;;;;;;;;;27.30;53.00;;;;;;4937451;29;19942;-97
2022/07/12 09:12:40;;;;;;;;;;;27.20;52.70;;;;;;4937861;29;19948;-97
2022/07/12 09:15:19;;;;;;;;;;;27.10;50.90;;;;;;4939354;29;19969;-96
2022/07/12 09:17:57;;;;;;;;;;;27.20;55.50;;;;;;4939158;29;19936;-96
2022/07/12 09:20:39;;;;;;;;;;;27.20;54.30;;;;;;4953537;29;20055;-96
2022/07/12 09:23:07;;;;;;;;;;;27.20;53.30;;;;;;4954245;29;20047;-96
2022/07/12 09:25:39;;;;;;;;;;;27.20;51.20;;;;;;4937388;29;19970;-96
2022/07/12 09:28:06;;;;;;;;;;;27.20;48.70;;;;;;4949203;23;20005;-96
2022/07/12 09:30:32;;;;;;;;;;;27.20;48.20;;;;;;4967112;29;19938;-96
2022/07/12 09:36:07;;;;;;;;;;;27.20;48.30;;;;;;4968868;29;19948;-96
2022/07/12 09:38:34;;;;;;;;;;;27.30;49.60;;;;;;4967069;29;19967;-96
2022/07/12 09:41:00;;;;;;;;;;;27.30;49.60;;;;;;4950188;29;19977;-96
2022/07/12 09:43:26;;;;;;;;;;;27.50;51.20;;;;;;4945505;29;19997;-96
2022/07/12 09:45:52;;;;;;;;;;;27.60;49.50;;;;;;4928648;29;19973;-96
2022/07/12 09:48:21;;;;;;;;;;;27.70;48.50;;;;;;4946410;29;19941;-96
2022/07/12 09:50:49;;;;;;;;;;;27.70;48.00;;;;;;4932362;29;19949;-96
2022/07/12 09:53:19;;;;;;;;;;;27.80;48.00;;;;;;4933627;29;19953;-96
2022/07/12 09:55:45;;;;;;;;;;;27.80;46.70;;;;;;4951446;29;19975;-96
2022/07/12 09:58:12;;;;;;;;;;;28.00;48.10;;;;;;4950578;29;19947;-96
2022/07/12 10:00:38;;;;;;;;;;;28.20;48.10;;;;;;4949817;29;19958;-96
2022/07/12 10:03:05;;;;;;;;;;;28.30;49.30;;;;;;4951191;29;20385;-96
2022/07/12 10:05:34;;;;;;;;;;;28.50;45.50;;;;;;4951273;29;19953;-96
2022/07/12 10:08:00;;;;;;;;;;;28.50;43.40;;;;;;4931828;29;19976;-96
2022/07/12 10:10:27;;;;;;;;;;;28.40;46.40;;;;;;4938230;29;19940;-97
2022/07/12 10:12:53;;;;;;;;;;;28.50;47.00;;;;;;4955776;29;19942;-96
2022/07/12 10:15:20;;;;;;;;;;;28.60;45.10;;;;;;4951607;29;19987;-96
2022/07/12 10:17:56;;;;;;;;;;;28.80;44.80;;;;;;4951019;29;19948;-96
2022/07/12 10:20:23;;;;;;;;;;;28.90;46.90;;;;;;4950502;29;19962;-96
2022/07/12 10:22:49;;;;;;;;;;;29.00;46.80;;;;;;4935560;29;19956;-96
2022/07/12 10:25:33;;;;;;;;;;;29.10;44.20;;;;;;4951610;29;20001;-96
2022/07/12 10:28:00;;;;;;;;;;;29.20;43.20;;;;;;4932967;29;20001;-96
2022/07/12 10:30:26;;;;;;;;;;;29.20;43.10;;;;;;4952006;29;19950;-96
2022/07/12 10:32:56;;;;;;;;;;;29.20;43.40;;;;;;4933231;29;19952;-96
2022/07/12 10:35:23;;;;;;;;;;;29.10;42.90;;;;;;4952697;29;19970;-96
2022/07/12 10:38:07;;;;;;;;;;;29.20;43.00;;;;;;4936433;29;19939;-96
2022/07/12 10:40:36;;;;;;;;;;;29.30;44.60;;;;;;4953308;29;19969;-96
2022/07/12 10:43:04;;;;;;;;;;;29.50;46.60;;;;;;4954437;29;19968;-96
2022/07/12 10:45:30;;;;;;;;;;;29.70;41.50;;;;;;4935599;29;20014;-96
2022/07/12 10:48:00;;;;;;;;;;;29.70;42.30;;;;;;4934322;29;19952;-96
2022/07/12 10:50:41;;;;;;;;;;;29.70;40.80;;;;;;4951554;29;19939;-96
2022/07/12 10:53:22;;;;;;;;;;;29.60;40.80;;;;;;4948942;29;19993;-96
2022/07/12 10:56:06;;;;;;;;;;;29.30;43.80;;;;;;4952073;29;19946;-96
2022/07/12 10:58:44;;;;;;;;;;;29.30;42.00;;;;;;4951470;29;19989;-96
2022/07/12 11:01:14;;;;;;;;;;;29.40;43.40;;;;;;4952435;29;20056;-96
2022/07/12 11:03:42;;;;;;;;;;;29.50;39.40;;;;;;4933816;29;19949;-96
2022/07/12 11:06:08;;;;;;;;;;;29.30;39.50;;;;;;4950135;29;19940;-96
2022/07/12 11:08:47;;;;;;;;;;;29.50;40.60;;;;;;4932174;29;19941;-96
2022/07/12 11:11:13;;;;;;;;;;;29.50;41.10;;;;;;4946430;29;20388;-96
2022/07/12 11:13:38;;;;;;;;;;;29.20;41.70;;;;;;4947077;29;19936;-96
2022/07/12 11:16:06;;;;;;;;;;;29.30;41.70;;;;;;4950952;29;19998;-96
2022/07/12 11:18:36;;;;;;;;;;;29.30;40.00;;;;;;4952817;29;19941;-96
2022/07/12 11:21:03;;;;;;;;;;;29.40;41.30;;;;;;4955641;29;19965;-96
2022/07/12 11:23:30;;;;;;;;;;;29.50;41.00;;;;;;4956813;29;19938;-96
2022/07/12 11:25:59;;;;;;;;;;;29.70;38.70;;;;;;4919084;29;19987;-96
2022/07/12 11:28:25;;;;;;;;;;;30.00;41.00;;;;;;4951495;29;20023;-96
2022/07/12 11:30:51;;;;;;;;;;;30.20;37.90;;;;;;4942252;29;19942;-96
2022/07/12 11:33:17;;;;;;;;;;;30.50;38.60;;;;;;4942641;29;19945;-96
2022/07/12 11:35:46;;;;;;;;;;;30.70;38.60;;;;;;4924778;29;19970;-96
2022/07/12 11:38:12;;;;;;;;;;;30.80;36.40;;;;;;4925484;29;19975;-96
2022/07/12 11:40:37;;;;;;;;;;;30.80;37.30;;;;;;4944200;29;19968;-96
2022/07/12 11:43:04;;;;;;;;;;;31.20;36.10;;;;;;4943393;29;20050;-96
2022/07/12 11:45:31;;;;;;;;;;;31.50;36.50;;;;;;4944786;29;19936;-96
2022/07/12 11:47:58;;;;;;;;;;;31.50;36.90;;;;;;4925295;29;19972;-96
2022/07/12 11:50:24;;;;;;;;;;;31.30;35.40;;;;;;4942975;29;19944;-96
2022/07/12 11:52:50;;;;;;;;;;;31.30;35.00;;;;;;4926404;29;19951;-96
2022/07/12 11:55:16;;;;;;;;;;;31.40;37.50;;;;;;4945233;29;19939;-96
2022/07/12 11:57:41;;;;;;;;;;;31.20;35.80;;;;;;4943480;29;19941;-96
2022/07/12 12:00:17;;;;;;;;;;;31.30;39.50;;;;;;4943285;29;20069;-96
2022/07/12 12:02:43;;;;;;;;;;;31.60;39.00;;;;;;4942654;29;19940;-96
2022/07/12 12:05:09;;;;;;;;;;;32.00;36.00;;;;;;4941258;29;19943;-96
2022/07/12 12:07:35;;;;;;;;;;;32.00;38.30;;;;;;4921232;29;20196;-96
2022/07/12 12:10:05;;;;;;;;;;;32.10;36.90;;;;;;4939213;29;19953;-96
2022/07/12 12:12:38;;;;;;;;;;;32.20;34.50;;;;;;4931885;29;19971;-96
2022/07/12 12:15:05;;;;;;;;;;;32.00;34.50;;;;;;4953532;29;20017;-96
2022/07/12 12:17:31;;;;;;;;;;;32.50;34.30;;;;;;4953614;29;20007;-96
2022/07/12 12:19:56;;;;;;;;;;;32.60;34.90;;;;;;4934122;29;19966;-96
2022/07/12 12:22:32;;;;;;;;;;;32.30;35.50;;;;;;4932852;29;19948;-96
2022/07/12 12:25:01;;;;;;;;;;;32.20;35.20;;;;;;4931815;29;19995;-96
2022/07/12 12:27:28;;;;;;;;;;;32.20;35.70;;;;;;4953620;29;19949;-96
2022/07/12 12:29:57;;;;;;;;;;;32.80;35.90;;;;;;4936930;29;19979;-96
2022/07/12 12:32:26;;;;;;;;;;;33.20;33.90;;;;;;4953840;29;19946;-96
2022/07/12 12:35:04;;;;;;;;;;;33.10;34.30;;;;;;4952149;29;19946;-96
2022/07/12 12:37:30;;;;;;;;;;;32.90;34.40;;;;;;4934754;29;19996;-96
2022/07/12 12:39:56;;;;;;;;;;;33.10;35.30;;;;;;4950860;29;19966;-96
2022/07/12 12:42:25;;;;;;;;;;;32.90;36.80;;;;;;4933993;29;19971;-96
2022/07/12 12:44:51;;;;;;;;;;;33.20;37.50;;;;;;4930640;29;19945;-96
2022/07/12 12:47:31;;;;;;;;;;;33.60;37.10;;;;;;4951045;29;20031;-96
2022/07/12 12:49:59;;;;;;;;;;;33.80;36.50;;;;;;4937834;29;19947;-96
2022/07/12 12:52:26;;;;;;;;;;;33.10;36.50;;;;;;4949053;29;19947;-96
2022/07/12 12:54:52;;;;;;;;;;;32.80;38.50;;;;;;4951973;29;19941;-96
2022/07/12 12:57:18;;;;;;;;;;;33.50;37.90;;;;;;4938320;29;20021;-96
2022/07/12 12:59:44;;;;;;;;;;;34.40;37.30;;;;;;4956921;29;19935;-97
2022/07/12 13:02:11;;;;;;;;;;;35.20;36.30;;;;;;4937783;29;19961;-96
2022/07/12 13:04:38;;;;;;;;;;;34.90;35.80;;;;;;4939496;29;19944;-96
2022/07/12 13:07:06;;;;;;;;;;;34.50;36.60;;;;;;4937590;29;19944;-96
2022/07/12 13:09:33;;;;;;;;;;;34.70;34.30;;;;;;4955025;29;19929;-96
2022/07/12 13:11:59;;;;;;;;;;;34.50;34.70;;;;;;4938589;29;19952;-96
2022/07/12 13:14:25;;;;;;;;;;;34.20;35.60;;;;;;4955666;29;19953;-96
2022/07/12 13:16:52;;;;;;;;;;;35.20;33.80;;;;;;4938971;29;19948;-96
2022/07/12 13:19:20;;;;;;;;;;;36.40;31.50;;;;;;4939162;29;19951;-96
2022/07/12 13:21:50;;;;;;;;;;;37.50;30.90;;;;;;4938497;29;19973;-96
2022/07/12 13:24:16;;;;;;;;;;;37.90;27.80;;;;;;4934813;29;19942;-96
2022/07/12 13:26:42;;;;;;;;;;;37.10;29.30;;;;;;4931364;29;19947;-97
2022/07/12 13:29:10;;;;;;;;;;;36.50;29.60;;;;;;4950296;29;20070;-96
2022/07/12 13:31:42;;;;;;;;;;;36.40;31.80;;;;;;4953328;29;19938;-96
2022/07/12 13:34:08;;;;;;;;;;;36.70;30.00;;;;;;4952590;29;20450;-96
2022/07/12 13:36:33;;;;;;;;;;;36.00;30.60;;;;;;4934914;29;20032;-97
2022/07/12 13:40:10;;;;;;;;;;;35.40;33.10;;;;;;4953619;29;20394;-96
2022/07/12 13:41:48;;;;;;;;;;;34.70;37.00;;;;;;4956054;29;20085;-96
2022/07/12 13:44:15;;;;;;;;;;;35.20;35.00;;;;;;5280567;23;20038;-96
2022/07/12 13:46:41;;;;;;;;;;;36.10;32.90;;;;;;4996381;28;19994;-96
2022/07/12 13:49:08;;;;;;;;;;;36.70;31.90;;;;;;4990031;28;20356;-96
2022/07/12 13:51:35;;;;;;;;;;;36.40;31.20;;;;;;4978095;28;19931;-96
2022/07/12 13:54:01;;;;;;;;;;;36.00;31.10;;;;;;4974398;28;19946;-96
2022/07/12 13:56:30;;;;;;;;;;;36.40;33.20;;;;;;4974720;28;19953;-96
2022/07/12 13:58:56;;;;;;;;;;;36.60;30.40;;;;;;4991199;28;19961;-96
2022/07/12 14:01:23;;;;;;;;;;;37.10;29.30;;;;;;4975910;28;19972;-97
2022/07/12 14:06:30;;;;;;;;;;;38.10;29.50;;;;;;4934573;29;19989;-96
2022/07/12 14:09:12;;;;;;;;;;;39.60;27.10;;;;;;4937433;29;19953;-96
2022/07/12 14:11:42;;;;;;;;;;;40.50;27.00;;;;;;4920425;29;19942;-96
2022/07/12 14:14:08;;;;;;;;;;;39.30;27.60;;;;;;4919990;29;20016;-96
2022/07/12 14:16:34;;;;;;;;;;;38.60;28.90;;;;;;4929784;29;19944;-96
2022/07/12 14:19:00;;;;;;;;;;;37.70;30.20;;;;;;4915672;29;19965;-96
2022/07/12 14:21:27;;;;;;;;;;;37.70;30.70;;;;;;4915295;29;20004;-97
2022/07/12 14:23:53;;;;;;;;;;;37.20;32.00;;;;;;4931596;29;19947;-96
2022/07/12 14:26:19;;;;;;;;;;;36.70;32.00;;;;;;4928424;29;19946;-96
2022/07/12 14:28:45;;;;;;;;;;;35.10;34.60;;;;;;4926401;29;19951;-96
2022/07/12 14:31:11;;;;;;;;;;;33.70;35.90;;;;;;4925775;29;20008;-96
2022/07/12 14:33:36;;;;;;;;;;;32.70;38.30;;;;;;4908491;29;19943;-96
2022/07/12 14:36:03;;;;;;;;;;;32.70;39.90;;;;;;4929022;29;20032;-96
2022/07/12 14:38:29;;;;;;;;;;;32.80;40.70;;;;;;4914713;29;19952;-96
2022/07/12 14:40:55;;;;;;;;;;;34.10;39.00;;;;;;4932261;29;20023;-96
2022/07/12 14:43:20;;;;;;;;;;;35.50;34.90;;;;;;4915188;29;20048;-97
2022/07/12 14:45:46;;;;;;;;;;;36.20;34.40;;;;;;4933253;29;19941;-96
2022/07/12 14:48:15;;;;;;;;;;;36.90;34.00;;;;;;4921455;29;19947;-97
2022/07/12 14:50:42;;;;;;;;;;;38.10;31.80;;;;;;4921666;29;19947;-97
2022/07/12 14:53:14;;;;;;;;;;;39.30;28.80;;;;;;4924235;29;19942;-97
2022/07/12 14:55:41;;;;;;;;;;;40.10;28.70;;;;;;4922568;29;20018;-96
2022/07/12 14:58:08;;;;;;;;;;;40.30;29.10;;;;;;4938447;29;19941;-96
2022/07/12 15:00:37;;;;;;;;;;;40.20;28.90;;;;;;4920812;29;19977;-96
2022/07/12 15:03:04;;;;;;;;;;;39.70;30.80;;;;;;4939698;29;19937;-96
2022/07/12 15:05:30;;;;;;;;;;;39.40;30.30;;;;;;4923297;29;19982;-96
2022/07/12 15:07:57;;;;;;;;;;;38.50;30.90;;;;;;4922629;29;19947;-96
2022/07/12 15:10:23;;;;;;;;;;;37.80;32.90;;;;;;4936717;29;19977;-96
2022/07/12 15:12:50;;;;;;;;;;;36.80;33.70;;;;;;4934007;29;19939;-96
2022/07/12 15:15:19;;;;;;;;;;;35.40;36.00;;;;;;4934169;29;19943;-97
2022/07/12 15:17:44;;;;;;;;;;;34.90;37.00;;;;;;4915108;29;19955;-96
2022/07/12 15:20:10;;;;;;;;;;;34.00;38.40;;;;;;4929990;29;19992;-97
2022/07/12 15:22:39;;;;;;;;;;;33.50;40.00;;;;;;4929595;29;19973;-96
2022/07/12 15:25:04;;;;;;;;;;;32.90;39.90;;;;;;4896746;29;19965;-96
2022/07/12 15:27:30;;;;;;;;;;;32.20;41.20;;;;;;4909440;29;19951;-96
2022/07/12 15:29:56;;;;;;;;;;;31.90;41.70;;;;;;4912472;29;19959;-96
2022/07/12 15:32:21;;;;;;;;;;;32.10;41.50;;;;;;4932026;29;19939;-97
2022/07/12 15:34:48;;;;;;;;;;;32.20;41.40;;;;;;4913811;29;19955;-96
2022/07/12 15:37:13;;;;;;;;;;;32.80;40.60;;;;;;4930774;29;19943;-96
2022/07/12 15:39:39;;;;;;;;;;;33.50;39.50;;;;;;4915543;29;19967;-96
2022/07/12 15:42:05;;;;;;;;;;;34.30;37.60;;;;;;4934698;29;19967;-96
2022/07/12 15:44:31;;;;;;;;;;;34.90;36.90;;;;;;4917857;29;19981;-96
2022/07/12 15:47:14;;;;;;;;;;;35.20;36.20;;;;;;4919247;29;19946;-97
2022/07/12 15:49:42;;;;;;;;;;;35.60;35.10;;;;;;4920549;29;19946;-96
2022/07/12 15:54:53;;;;;;;;;;;35.70;34.00;;;;;;4928268;29;19951;-96